Jixi, China
Current Conditions -  °F | °C
As of 4:00 AM on Saturday 20 Dec 2014 (Local Time) from UHWW Reporting Station
Snow Showers Snow Showers  
Wind Chill: 15°   Ceiling: 2600
Heat Index: 23°   Visibility: 1.6mi
Dew Point: 19°   Wind: 7mph
Humidity: 86%   Direction: 250°WSW
Pressure: 29.85"   Gusts: NA
Location:  45.3°N, 130.97°E
Report Text: UHWW 192000Z 25003MPS 2700 -SHSN BR SCT011 BKN026CB OVC100M05/M07 Q1011 NOSIG RMK QFE757/1010 25CLRD60
Loading
Personal Weather Stations






























Interactive Weather Map New forecast layout! Learn more

10-Day Weather Forecast

Advertisements
Track Severe Weather on mobile